Time;durP1;ratioP1;P1;durP2;ratioP2;P2;SDS_P1;SDS_P2;PMS_P1;PMS_P2;Temp;Humidity;BMP_temperature;BMP_pressure;BME280_temperature;BME280_humidity;BME280_pressure;Samples;Min_cycle;Max_cycle;Signal;HPM_P1;HPM_P2
2022/06/05 00:01:19;;;;;;;3.67;3.22;;;19.90;99.90;;;;;;5085115;28;20091;-59
2022/06/05 00:03:48;;;;;;;6.53;3.33;;;19.80;99.90;;;;;;5099491;28;20023;-58
2022/06/05 00:06:23;;;;;;;5.65;3.67;;;19.90;99.90;;;;;;5088295;28;20084;-59
2022/06/05 00:09:10;;;;;;;4.75;3.60;;;19.70;99.90;;;;;;5098062;28;20387;-58
2022/06/05 00:11:52;;;;;;;4.13;3.72;;;19.60;99.90;;;;;;5087186;28;20653;-58
2022/06/05 00:14:18;;;;;;;8.45;3.97;;;19.70;99.90;;;;;;5104903;28;20020;-58
2022/06/05 00:16:44;;;;;;;4.38;3.60;;;19.90;99.90;;;;;;5096518;28;20073;-59
2022/06/05 00:19:10;;;;;;;6.57;3.78;;;19.80;99.90;;;;;;5097332;28;20023;-57
2022/06/05 00:21:36;;;;;;;4.82;3.72;;;19.80;99.90;;;;;;5097576;28;20028;-58
2022/06/05 00:24:02;;;;;;;6.57;3.60;;;19.90;99.90;;;;;;5104156;28;20032;-58
2022/06/05 00:26:45;;;;;;;7.50;3.90;;;19.60;99.90;;;;;;5093533;28;20513;-58
2022/06/05 00:29:11;;;;;;;;;;;19.30;99.90;;;;;;5101623;28;20052;-59
2022/06/05 00:31:50;;;;;;;5.78;3.97;;;19.50;99.90;;;;;;5095060;28;19947;-57
2022/06/05 00:34:15;;;;;;;4.72;3.80;;;19.30;99.90;;;;;;5096406;28;20457;-58
2022/06/05 00:37:05;;;;;;;6.45;3.90;;;19.40;99.90;;;;;;5092855;28;20019;-58
2022/06/05 00:39:54;;;;;;;5.57;3.80;;;19.40;99.90;;;;;;5084596;28;20020;-59
2022/06/05 00:42:23;;;;;;;8.40;4.20;;;19.40;99.90;;;;;;5091826;28;20016;-58
2022/06/05 00:44:52;;;;;;;6.25;4.38;;;19.30;99.90;;;;;;5090633;28;20385;-59
2022/06/05 00:47:24;;;;;;;4.63;3.92;;;19.50;99.90;;;;;;5098580;28;20107;-59
2022/06/05 00:50:07;;;;;;;5.88;3.95;;;19.70;99.90;;;;;;5090311;28;20015;-59
2022/06/05 00:52:35;;;;;;;6.70;3.80;;;19.40;99.90;;;;;;5087937;28;20032;-58
2022/06/05 00:55:02;;;;;;;7.88;4.13;;;19.40;99.90;;;;;;5089648;28;20128;-59
2022/06/05 00:57:30;;;;;;;4.70;3.95;;;19.30;99.90;;;;;;5095884;28;20103;-58
2022/06/05 00:59:58;;;;;;;6.53;4.15;;;19.20;99.90;;;;;;5095750;28;20031;-59
2022/06/05 01:02:24;;;;;;;6.35;4.25;;;19.20;99.90;;;;;;5083203;28;20032;-57
2022/06/05 01:04:50;;;;;;;7.88;4.28;;;19.20;99.90;;;;;;5092857;28;20020;-58
2022/06/05 01:07:17;;;;;;;5.53;4.25;;;19.20;99.90;;;;;;5096683;28;20044;-57
2022/06/05 01:09:46;;;;;;;6.15;4.18;;;19.10;99.90;;;;;;5104836;28;20577;-58
2022/06/05 01:12:24;;;;;;;7.35;3.88;;;19.20;99.90;;;;;;5093090;28;20012;-58
2022/06/05 01:15:20;;;;;;;4.80;4.05;;;19.10;99.90;;;;;;5082970;28;20120;-59
2022/06/05 01:18:04;;;;;;;6.93;4.10;;;18.80;99.90;;;;;;5094518;28;20640;-58
2022/06/05 01:20:38;;;;;;;6.70;4.63;;;18.90;99.90;;;;;;5091514;28;20036;-58
2022/06/05 01:23:58;;;;;;;7.40;4.55;;;19.10;99.90;;;;;;5093532;28;20042;-58
2022/06/05 01:26:44;;;;;;;9.07;4.70;;;19.20;99.90;;;;;;5081903;28;20479;-57
2022/06/05 01:29:25;;;;;;;12.75;4.47;;;19.00;99.90;;;;;;5094281;28;20028;-57
2022/06/05 01:32:03;;;;;;;8.43;4.40;;;18.80;99.90;;;;;;5089651;28;20507;-59
2022/06/05 01:34:51;;;;;;;8.20;4.70;;;18.60;99.90;;;;;;5094413;28;20009;-58
2022/06/05 01:37:33;;;;;;;5.40;4.10;;;18.40;99.90;;;;;;5095627;28;20016;-58
2022/06/05 01:40:13;;;;;;;7.85;4.45;;;18.30;99.90;;;;;;5095122;27;20019;-59
2022/06/05 01:42:44;;;;;;;6.28;4.50;;;18.40;99.90;;;;;;5098783;28;20024;-57
2022/06/05 01:45:17;;;;;;;5.80;4.10;;;18.50;99.90;;;;;;5089408;28;20123;-58
2022/06/05 01:47:47;;;;;;;5.25;4.20;;;18.30;99.90;;;;;;5088771;28;20055;-58
2022/06/05 01:50:22;;;;;;;6.10;4.38;;;18.40;99.90;;;;;;5092118;28;20287;-58
2022/06/05 01:53:18;;;;;;;5.18;4.18;;;18.60;99.90;;;;;;5097234;28;20023;-57
2022/06/05 01:55:52;;;;;;;5.70;4.25;;;18.60;99.90;;;;;;5090608;28;20589;-58
2022/06/05 01:58:22;;;;;;;6.22;4.35;;;18.40;99.90;;;;;;5091561;28;20023;-59
2022/06/05 02:00:54;;;;;;;5.00;4.32;;;18.40;99.90;;;;;;5089312;28;20016;-58
2022/06/05 02:03:29;;;;;;;6.88;4.50;;;18.20;99.90;;;;;;5079551;28;20035;-58
2022/06/05 02:06:07;;;;;;;5.22;4.43;;;18.40;99.90;;;;;;5094030;28;20035;-58
2022/06/05 02:08:41;;;;;;;5.72;4.53;;;18.30;99.90;;;;;;5093782;28;20042;-57
2022/06/05 02:11:20;;;;;;;6.60;4.65;;;18.20;99.90;;;;;;5079382;28;20039;-59
2022/06/05 02:13:47;;;;;;;5.97;4.30;;;18.30;99.90;;;;;;5089720;28;20020;-57
2022/06/05 02:16:13;;;;;;;6.82;4.53;;;17.90;99.90;;;;;;5093523;28;20035;-57
2022/06/05 02:18:39;;;;;;;5.10;4.60;;;17.80;99.90;;;;;;5094428;28;20019;-58
2022/06/05 02:21:05;;;;;;;7.43;4.90;;;17.60;99.90;;;;;;5082298;28;20024;-57
2022/06/05 02:23:33;;;;;;;5.93;4.75;;;17.50;99.90;;;;;;5095501;28;20046;-59
2022/06/05 02:26:05;;;;;;;5.63;4.95;;;17.60;99.90;;;;;;5095796;28;20047;-58
2022/06/05 02:28:31;;;;;;;6.45;4.68;;;17.80;99.90;;;;;;5094752;28;20032;-57
2022/06/05 02:31:24;;;;;;;7.32;4.97;;;17.70;99.90;;;;;;5091641;28;20032;-58
2022/06/05 02:34:08;;;;;;;7.20;4.72;;;17.80;99.90;;;;;;5099761;28;20073;-58
2022/06/05 02:36:52;;;;;;;5.55;5.05;;;17.70;99.90;;;;;;5086656;28;20023;-58
2022/06/05 02:39:41;;;;;;;7.38;5.57;;;17.80;99.90;;;;;;5084386;28;20111;-58
2022/06/05 02:42:25;;;;;;;5.22;4.65;;;17.60;99.90;;;;;;5094062;28;20564;-57
2022/06/05 02:45:14;;;;;;;5.97;4.72;;;17.60;99.90;;;;;;5078457;28;20635;-58
2022/06/05 02:47:55;;;;;;;7.00;4.93;;;17.60;99.90;;;;;;5100404;28;20038;-57
2022/06/05 02:50:41;;;;;;;6.32;4.90;;;17.80;99.90;;;;;;5086995;28;20018;-58
2022/06/05 02:53:10;;;;;;;9.38;5.90;;;17.70;99.90;;;;;;5099069;28;20043;-58
2022/06/05 02:55:35;;;;;;;6.57;5.35;;;17.30;99.90;;;;;;5093769;28;20051;-58
2022/06/05 02:58:01;;;;;;;6.03;4.90;;;17.20;99.90;;;;;;5094341;28;20426;-57
2022/06/05 03:00:31;;;;;;;6.25;5.65;;;17.20;99.90;;;;;;5096909;28;20372;-57
2022/06/05 03:05:42;;;;;;;8.85;5.50;;;17.20;99.90;;;;;;5091492;28;20107;-58
2022/06/05 03:08:10;;;;;;;11.98;6.03;;;17.10;99.90;;;;;;5092770;28;20489;-59
2022/06/05 03:10:36;;;;;;;9.73;6.70;;;17.20;99.90;;;;;;5091412;28;20445;-58
2022/06/05 03:13:02;;;;;;;10.77;6.93;;;17.10;99.90;;;;;;5084797;28;20019;-57
2022/06/05 03:15:31;;;;;;;9.20;6.72;;;16.90;99.90;;;;;;5095326;28;20032;-58
2022/06/05 03:17:57;;;;;;;11.50;7.28;;;16.90;99.90;;;;;;5090757;28;20485;-58
2022/06/05 03:20:23;;;;;;;9.13;7.25;;;17.10;99.90;;;;;;5096038;28;20111;-57
2022/06/05 03:22:50;;;;;;;11.63;7.70;;;16.90;99.90;;;;;;5090030;28;20019;-57
2022/06/05 03:25:18;;;;;;;10.35;8.20;;;17.10;99.90;;;;;;5098641;28;20073;-57
2022/06/05 03:27:44;;;;;;;17.23;8.32;;;17.30;99.90;;;;;;5092068;28;20402;-57
2022/06/05 03:30:11;;;;;;;13.85;8.30;;;17.30;99.90;;;;;;5099764;28;20823;-58
2022/06/05 03:32:36;;;;;;;10.93;8.50;;;17.50;99.90;;;;;;5088771;28;20043;-58
2022/06/05 03:35:02;;;;;;;15.82;8.93;;;17.20;99.90;;;;;;5099394;28;20053;-58
2022/06/05 03:37:27;;;;;;;16.42;9.40;;;17.10;99.90;;;;;;5097052;28;20032;-58
2022/06/05 03:39:53;;;;;;;16.25;9.63;;;17.10;99.90;;;;;;5096776;28;20742;-58
2022/06/05 03:42:19;;;;;;;15.35;9.20;;;17.20;99.90;;;;;;5089885;28;20373;-57
2022/06/05 03:44:44;;;;;;;16.67;9.45;;;17.10;99.90;;;;;;5107626;28;20016;-57
2022/06/05 03:47:12;;;;;;;16.33;9.55;;;17.00;99.90;;;;;;5089364;28;20032;-57
2022/06/05 03:49:38;;;;;;;12.90;9.50;;;16.90;99.90;;;;;;5091982;28;20035;-59
2022/06/05 03:52:04;;;;;;;13.80;8.77;;;17.00;99.90;;;;;;5094741;28;20027;-58
2022/06/05 03:54:31;;;;;;;12.77;9.13;;;16.90;99.90;;;;;;5097132;28;20439;-57
2022/06/05 03:56:57;;;;;;;12.57;8.55;;;16.90;99.90;;;;;;5097970;28;20477;-57
2022/06/05 03:59:22;;;;;;;13.75;9.55;;;16.90;99.90;;;;;;5082276;28;20028;-58
2022/06/05 04:01:48;;;;;;;13.05;9.00;;;17.10;99.90;;;;;;5101720;28;20040;-58
2022/06/05 04:04:14;;;;;;;13.70;8.95;;;17.00;99.90;;;;;;5099278;28;20024;-59
2022/06/05 04:06:40;;;;;;;13.13;8.50;;;17.00;99.90;;;;;;5096272;28;20035;-58
2022/06/05 04:09:07;;;;;;;11.98;9.23;;;17.00;99.90;;;;;;5090062;28;20028;-57
2022/06/05 04:11:35;;;;;;;13.43;8.70;;;17.10;99.90;;;;;;5092546;28;20475;-57
2022/06/05 04:14:01;;;;;;;12.55;9.63;;;17.40;99.90;;;;;;5093166;28;20475;-58
2022/06/05 04:16:30;;;;;;;15.82;9.30;;;17.20;99.90;;;;;;5100235;28;20181;-58
2022/06/05 04:18:57;;;;;;;11.38;8.90;;;;;;;;;;5096098;28;20035;-58
2022/06/05 04:21:25;;;;;;;12.35;8.80;;;17.20;99.90;;;;;;5095408;28;20028;-57
2022/06/05 04:23:52;;;;;;;13.55;8.75;;;17.20;99.90;;;;;;5096425;28;20444;-58
2022/06/05 04:26:22;;;;;;;11.55;8.18;;;17.10;99.90;;;;;;5102161;28;20042;-57
2022/06/05 04:28:47;;;;;;;11.10;8.25;;;17.20;99.90;;;;;;5097440;28;20076;-59
2022/06/05 04:31:19;;;;;;;13.82;9.30;;;17.50;99.90;;;;;;5097533;28;20028;-57
2022/06/05 04:33:45;;;;;;;11.93;8.77;;;17.30;99.90;;;;;;5097561;28;20020;-58
2022/06/05 04:36:12;;;;;;;10.52;7.93;;;17.20;99.90;;;;;;5095565;28;20080;-57
2022/06/05 04:38:37;;;;;;;12.18;7.82;;;17.10;99.90;;;;;;5095161;28;20024;-57
2022/06/05 04:41:03;;;;;;;8.85;7.47;;;17.20;99.90;;;;;;5089296;28;20258;-56
2022/06/05 04:43:29;;;;;;;9.13;7.35;;;17.30;99.90;;;;;;5099989;28;20036;-58
2022/06/05 04:45:54;;;;;;;11.75;7.65;;;17.50;99.90;;;;;;5095272;28;20558;-58
2022/06/05 04:48:20;;;;;;;8.20;7.05;;;17.60;99.90;;;;;;5101952;28;20364;-57
2022/06/05 04:50:45;;;;;;;10.23;7.28;;;17.50;99.90;;;;;;5093518;28;20449;-58
2022/06/05 04:53:11;;;;;;;8.15;6.47;;;17.60;99.90;;;;;;5098941;28;20320;-59
2022/06/05 04:55:38;;;;;;;8.60;6.88;;;17.60;99.90;;;;;;5089368;28;20020;-59
2022/06/05 04:58:03;;;;;;;8.68;6.25;;;17.70;99.90;;;;;;5101839;28;20783;-57
2022/06/05 05:00:29;;;;;;;7.70;6.53;;;17.80;99.90;;;;;;5099164;28;20099;-58
2022/06/05 05:02:55;;;;;;;7.35;6.65;;;18.00;99.90;;;;;;5102740;28;20031;-58
2022/06/05 05:05:20;;;;;;;7.45;6.60;;;17.50;99.90;;;;;;5090332;28;20025;-56
2022/06/05 05:07:46;;;;;;;8.57;6.65;;;17.70;99.90;;;;;;5097554;28;20379;-59
2022/06/05 05:10:12;;;;;;;8.38;6.38;;;17.80;99.90;;;;;;5095872;28;20497;-58
2022/06/05 05:12:37;;;;;;;9.05;6.70;;;17.50;99.90;;;;;;5100641;28;20008;-58
2022/06/05 05:15:04;;;;;;;7.38;6.25;;;17.60;99.90;;;;;;5091735;28;20388;-57
2022/06/05 05:17:29;;;;;;;7.03;6.35;;;17.60;99.90;;;;;;5090383;28;20422;-57
2022/06/05 05:19:56;;;;;;;9.82;6.53;;;17.70;99.90;;;;;;5100701;28;20031;-58
2022/06/05 05:22:22;;;;;;;7.15;6.22;;;17.90;99.90;;;;;;5088636;28;20051;-59
2022/06/05 05:24:48;;;;;;;6.90;5.95;;;18.00;99.90;;;;;;5097257;28;20052;-57
2022/06/05 05:27:14;;;;;;;6.90;6.20;;;18.00;99.90;;;;;;5098756;28;20032;-57
2022/06/05 05:29:40;;;;;;;6.65;6.05;;;17.90;99.90;;;;;;5096064;28;20081;-58
2022/06/05 05:32:08;;;;;;;8.80;6.45;;;18.10;99.90;;;;;;5086505;28;20031;-58
2022/06/05 05:34:34;;;;;;;7.78;6.28;;;18.20;99.90;;;;;;5099757;28;20020;-57
2022/06/05 05:36:59;;;;;;;9.43;6.10;;;18.20;99.90;;;;;;5090528;28;20077;-58
2022/06/05 05:42:11;;;;;;;8.43;6.38;;;18.30;99.90;;;;;;5092820;28;20497;-58
2022/06/05 05:44:46;;;;;;;11.13;6.60;;;18.40;99.90;;;;;;5102266;28;20139;-57
2022/06/05 05:47:19;;;;;;;10.13;6.63;;;18.50;99.90;;;;;;5089049;28;20478;-58
2022/06/05 05:49:45;;;;;;;8.88;6.20;;;18.40;99.90;;;;;;5092021;28;20067;-58
2022/06/05 05:52:11;;;;;;;9.45;6.32;;;18.40;99.90;;;;;;5097585;28;20028;-58
2022/06/05 05:54:38;;;;;;;11.15;7.07;;;18.50;99.90;;;;;;5100684;28;20072;-58
2022/06/05 05:57:05;;;;;;;8.27;6.32;;;18.30;99.90;;;;;;5089514;28;20035;-57
2022/06/05 05:59:31;;;;;;;10.38;6.10;;;18.30;99.90;;;;;;5089381;28;20036;-60
2022/06/05 06:01:56;;;;;;;10.45;6.65;;;18.40;99.90;;;;;;5092615;28;20035;-58
2022/06/05 06:04:22;;;;;;;9.48;6.18;;;18.40;99.90;;;;;;5090152;28;20031;-58
2022/06/05 06:06:49;;;;;;;9.88;6.30;;;18.30;99.90;;;;;;5098298;28;20693;-57
2022/06/05 06:09:16;;;;;;;8.80;6.03;;;18.50;99.90;;;;;;5092061;28;20511;-58
2022/06/05 06:11:42;;;;;;;6.82;5.78;;;18.30;99.90;;;;;;5093275;28;20510;-58
2022/06/05 06:14:08;;;;;;;7.88;5.57;;;18.40;99.90;;;;;;5091058;28;20073;-57
2022/06/05 06:16:34;;;;;;;7.78;5.20;;;18.40;99.90;;;;;;5099891;28;20023;-58
2022/06/05 06:18:59;;;;;;;7.65;5.25;;;18.30;99.90;;;;;;5092401;28;20165;-58
2022/06/05 06:21:26;;;;;;;5.55;5.05;;;18.40;99.90;;;;;;5100796;28;20022;-58
2022/06/05 06:23:51;;;;;;;7.18;5.40;;;18.30;99.90;;;;;;5090433;28;20038;-58
2022/06/05 06:26:17;;;;;;;7.72;5.93;;;18.30;99.90;;;;;;5100402;28;20391;-58
2022/06/05 06:28:43;;;;;;;6.07;5.47;;;18.40;99.90;;;;;;5095227;28;20130;-57
2022/06/05 06:31:11;;;;;;;7.95;6.05;;;18.50;99.90;;;;;;5088093;28;20102;-58
2022/06/05 06:33:39;;;;;;;7.22;4.97;;;18.60;99.90;;;;;;5091180;28;20459;-58
2022/06/05 06:36:07;;;;;;;7.05;5.15;;;18.80;99.90;;;;;;5089845;28;20027;-59
2022/06/05 06:38:33;;;;;;;7.93;5.38;;;18.80;99.90;;;;;;5096668;28;20019;-58
2022/06/05 06:41:08;;;;;;;6.32;5.53;;;18.90;99.90;;;;;;5098787;28;20024;-58
2022/06/05 06:43:34;;;;;;;7.32;5.00;;;18.90;99.90;;;;;;5091386;28;20126;-59
2022/06/05 06:46:01;;;;;;;6.30;5.70;;;18.90;99.90;;;;;;5086255;28;20127;-59
2022/06/05 06:48:27;;;;;;;10.30;5.70;;;18.90;99.90;;;;;;5097448;28;20156;-58
2022/06/05 06:50:57;;;;;;;5.60;5.05;;;18.90;99.90;;;;;;5095158;28;20028;-59
2022/06/05 06:53:23;;;;;;;5.82;5.22;;;19.10;99.90;;;;;;5096691;28;20019;-59
2022/06/05 06:55:50;;;;;;;5.68;5.18;;;19.20;99.90;;;;;;5094225;28;20976;-57
2022/06/05 06:58:16;;;;;;;5.95;5.35;;;19.10;99.90;;;;;;5095306;28;20538;-57
2022/06/05 07:00:42;;;;;;;6.05;5.45;;;19.10;99.90;;;;;;5092534;28;20016;-57
2022/06/05 07:03:08;;;;;;;5.93;5.32;;;19.20;99.90;;;;;;5098990;28;20020;-58
2022/06/05 07:05:34;;;;;;;8.95;5.47;;;19.10;99.90;;;;;;5091773;28;20467;-59
2022/06/05 07:08:00;;;;;;;5.25;4.78;;;19.20;99.90;;;;;;5097645;28;20024;-58
2022/06/05 07:10:26;;;;;;;7.30;5.45;;;19.40;99.90;;;;;;5089565;28;20077;-59
2022/06/05 07:12:52;;;;;;;6.82;4.97;;;19.50;99.90;;;;;;5095464;28;20143;-58
2022/06/05 07:15:18;;;;;;;7.93;5.38;;;19.20;99.90;;;;;;5081022;28;20104;-58
2022/06/05 07:17:44;;;;;;;8.05;5.55;;;19.30;99.90;;;;;;5097297;28;20028;-57
2022/06/05 07:20:10;;;;;;;6.88;5.28;;;19.30;99.90;;;;;;5098792;28;20024;-59
2022/06/05 07:22:35;;;;;;;7.18;6.00;;;19.40;99.90;;;;;;5095119;28;20024;-58
2022/06/05 07:25:01;;;;;;;6.20;5.63;;;19.50;99.90;;;;;;5090028;28;20411;-59
2022/06/05 07:27:28;;;;;;;6.13;5.53;;;19.60;99.90;;;;;;5101112;28;20415;-58
2022/06/05 07:29:53;;;;;;;6.28;5.68;;;19.80;99.90;;;;;;5095016;28;20047;-58
2022/06/05 07:32:20;;;;;;;6.28;5.38;;;;;;;;;;5095877;28;20028;-59
2022/06/05 07:34:47;;;;;;;5.95;5.30;;;19.90;99.90;;;;;;5097059;28;20055;-59
2022/06/05 07:37:13;;;;;;;6.80;6.00;;;20.20;99.90;;;;;;5102176;28;20028;-58
2022/06/05 07:39:39;;;;;;;7.15;5.20;;;20.30;99.90;;;;;;5088478;28;20529;-60
2022/06/05 07:42:05;;;;;;;7.57;5.97;;;20.50;99.90;;;;;;5095613;28;20106;-58
2022/06/05 07:44:31;;;;;;;8.98;6.07;;;20.10;99.90;;;;;;5096202;28;20077;-59
2022/06/05 07:46:57;;;;;;;8.35;5.82;;;20.20;99.90;;;;;;5089639;28;20035;-57
2022/06/05 07:49:22;;;;;;;10.63;5.88;;;20.20;99.90;;;;;;5098366;28;20413;-57
2022/06/05 07:54:36;;;;;;;7.85;5.68;;;20.30;99.90;;;;;;5101594;28;20201;-58
2022/06/05 07:57:07;;;;;;;10.02;5.95;;;20.50;99.90;;;;;;5092133;28;20012;-57
2022/06/05 07:59:38;;;;;;;6.15;5.55;;;20.70;99.90;;;;;;5096832;28;20035;-58
2022/06/05 08:02:08;;;;;;;7.53;5.70;;;20.50;99.90;;;;;;5092652;28;20027;-57
2022/06/05 08:04:35;;;;;;;6.82;5.30;;;20.60;99.90;;;;;;5095384;28;20082;-57
2022/06/05 08:07:02;;;;;;;7.78;5.47;;;;;;;;;;5095086;28;20031;-58
2022/06/05 08:09:28;;;;;;;9.82;5.90;;;20.70;99.90;;;;;;5096918;28;20375;-57
2022/06/05 08:11:54;;;;;;;6.97;5.80;;;20.50;99.90;;;;;;5097100;28;20100;-58
2022/06/05 08:14:20;;;;;;;7.97;5.80;;;20.70;99.90;;;;;;5093936;28;20467;-57
2022/06/05 08:16:46;;;;;;;8.27;5.70;;;20.80;99.90;;;;;;5103909;28;20421;-58
2022/06/05 08:19:14;;;;;;;6.55;5.68;;;20.80;99.90;;;;;;5095787;28;20028;-58
2022/06/05 08:21:41;;;;;;;7.47;5.57;;;20.90;99.90;;;;;;5101058;28;20028;-58
2022/06/05 08:24:07;;;;;;;8.75;5.15;;;21.10;99.90;;;;;;5091282;28;20046;-57
2022/06/05 08:26:33;;;;;;;9.18;6.60;;;21.20;99.90;;;;;;5100847;28;20026;-58
2022/06/05 08:28:59;;;;;;;12.70;5.80;;;21.30;99.90;;;;;;5092481;28;20031;-58
2022/06/05 08:31:25;;;;;;;10.57;6.07;;;21.50;99.90;;;;;;5100808;28;20032;-57
2022/06/05 08:33:50;;;;;;;13.07;7.10;;;21.30;99.90;;;;;;5098369;28;20030;-59
2022/06/05 08:36:16;;;;;;;9.20;6.50;;;21.50;99.90;;;;;;5087036;28;20428;-58
2022/06/05 08:41:32;;;;;;;14.05;8.23;;;21.70;99.90;;;;;;5092280;28;20077;-57
2022/06/05 08:44:21;;;;;;;12.13;8.20;;;21.90;99.90;;;;;;5101557;28;20558;-57
2022/06/05 08:46:51;;;;;;;10.38;8.20;;;21.90;99.90;;;;;;5087385;28;20491;-59
2022/06/05 08:49:26;;;;;;;10.20;7.43;;;22.10;99.90;;;;;;5097879;28;20050;-59
2022/06/05 08:52:01;;;;;;;9.48;6.88;;;22.00;99.90;;;;;;5093142;28;20506;-58
2022/06/05 08:54:40;;;;;;;10.88;7.55;;;22.10;99.90;;;;;;5097935;28;20534;-57
2022/06/05 08:57:22;;;;;;;10.98;7.70;;;22.10;99.90;;;;;;5091275;28;20077;-58
2022/06/05 09:00:19;;;;;;;12.57;7.40;;;22.10;99.90;;;;;;5095820;28;20499;-60
2022/06/05 09:03:00;;;;;;;8.80;6.65;;;22.20;99.90;;;;;;5089946;28;20363;-58
2022/06/05 09:05:38;;;;;;;10.55;7.15;;;22.10;99.90;;;;;;5087539;28;20024;-57
2022/06/05 09:08:11;;;;;;;9.70;7.15;;;22.30;99.90;;;;;;5084297;28;20361;-59
2022/06/05 09:11:11;;;;;;;10.38;7.50;;;22.40;99.90;;;;;;5094533;28;20031;-58
2022/06/05 09:13:50;;;;;;;9.27;6.75;;;22.50;99.90;;;;;;5077132;28;20035;-58
2022/06/05 09:16:26;;;;;;;8.52;6.45;;;22.60;99.90;;;;;;5087412;28;20026;-59
2022/06/05 09:18:52;;;;;;;6.70;6.00;;;22.60;99.90;;;;;;5093759;28;20028;-58
2022/06/05 09:21:43;;;;;;;6.68;5.93;;;22.60;99.90;;;;;;5097707;28;20031;-58
2022/06/05 09:24:15;;;;;;;6.55;5.80;;;22.70;99.90;;;;;;5097006;28;20488;-58
2022/06/05 09:26:42;;;;;;;6.90;6.20;;;22.70;99.90;;;;;;5101125;28;20024;-58
2022/06/05 09:29:50;;;;;;;6.90;6.20;;;22.60;99.90;;;;;;5094503;28;20028;-59
2022/06/05 09:32:39;;;;;;;8.05;6.07;;;22.70;99.90;;;;;;5077321;28;20016;-58
2022/06/05 09:35:31;;;;;;;8.55;5.97;;;22.70;99.90;;;;;;5090837;28;20040;-58
2022/06/05 09:38:19;;;;;;;7.22;6.05;;;22.60;99.90;;;;;;5088964;28;20804;-56
2022/06/05 09:41:11;;;;;;;8.07;6.03;;;22.60;99.90;;;;;;5086986;28;20040;-56
2022/06/05 09:43:54;;;;;;;8.50;6.43;;;22.60;99.90;;;;;;5092057;28;20039;-57
2022/06/05 09:46:47;;;;;;;6.63;6.03;;;22.50;99.90;;;;;;5090882;28;20391;-56
2022/06/05 09:49:22;;;;;;;6.68;5.82;;;22.40;99.90;;;;;;5089897;28;20459;-56
2022/06/05 09:51:47;;;;;;;7.00;6.10;;;22.20;99.90;;;;;;5088854;28;20508;-58
2022/06/05 09:54:13;;;;;;;6.53;5.90;;;21.90;99.90;;;;;;5096037;28;20130;-55
2022/06/05 09:59:52;;;;;;;6.15;5.60;;;21.70;99.90;;;;;;5099684;28;20034;-55
2022/06/05 10:02:21;;;;;;;10.95;6.63;;;21.80;99.90;;;;;;5088930;28;20081;-55
2022/06/05 10:04:48;;;;;;;15.02;7.78;;;21.80;99.90;;;;;;5100793;28;20530;-54
2022/06/05 10:07:47;;;;;;;11.65;8.82;;;21.10;99.90;;;;;;5093565;28;20120;-54
2022/06/05 10:10:25;;;;;;;10.55;9.45;;;20.70;99.90;;;;;;5085122;28;20024;-55
2022/06/05 10:13:01;;;;;;;10.82;9.68;;;20.30;99.90;;;;;;5093311;28;20020;-57
2022/06/05 10:15:33;;;;;;;12.32;10.70;;;20.10;99.90;;;;;;5087432;28;20442;-56
2022/06/05 10:18:08;;;;;;;12.63;11.20;;;19.90;99.90;;;;;;5102740;28;20789;-56
2022/06/05 10:20:46;;;;;;;12.65;11.32;;;19.80;99.90;;;;;;5096842;28;20072;-55
2022/06/05 10:23:32;;;;;;;14.73;12.32;;;19.70;99.90;;;;;;5095564;28;20690;-56
2022/06/05 10:26:15;;;;;;;15.85;13.40;;;19.70;99.90;;;;;;5091005;28;20028;-54
2022/06/05 10:28:42;;;;;;;15.40;13.80;;;19.60;99.90;;;;;;5088568;28;20027;-55
2022/06/05 10:31:25;;;;;;;16.70;13.18;;;19.50;99.90;;;;;;5085869;28;20126;-55
2022/06/05 10:34:09;;;;;;;15.93;14.15;;;19.70;99.90;;;;;;5083676;28;20245;-55
2022/06/05 10:36:53;;;;;;;15.20;13.48;;;19.80;99.90;;;;;;5087712;28;20452;-55
2022/06/05 10:39:29;;;;;;;15.88;13.95;;;19.70;99.90;;;;;;5085004;28;20115;-58
2022/06/05 10:41:57;;;;;;;16.20;14.25;;;19.70;99.90;;;;;;5102210;28;20036;-59
2022/06/05 10:44:33;;;;;;;15.13;13.63;;;19.60;99.90;;;;;;5092319;28;20027;-58
2022/06/05 10:47:13;;;;;;;15.27;13.80;;;19.60;99.90;;;;;;5089364;28;20028;-58
2022/06/05 10:49:52;;;;;;;14.98;13.48;;;19.70;99.90;;;;;;5096162;28;20102;-58
2022/06/05 10:52:27;;;;;;;15.40;13.95;;;19.70;99.90;;;;;;5092770;28;20019;-55
2022/06/05 10:55:18;;;;;;;15.38;13.80;;;19.80;99.90;;;;;;5096538;28;20012;-54
2022/06/05 10:58:00;;;;;;;15.82;14.43;;;20.00;99.90;;;;;;5083321;28;20043;-56
2022/06/05 11:00:37;;;;;;;16.70;15.00;;;20.10;99.90;;;;;;5095768;28;20365;-57
2022/06/05 11:03:18;;;;;;;17.25;15.63;;;20.30;99.90;;;;;;5085055;28;20030;-57
2022/06/05 11:06:25;;;;;;;16.70;15.10;;;20.30;99.90;;;;;;5090487;28;20044;-56
2022/06/05 11:09:18;;;;;;;16.80;15.18;;;20.30;99.90;;;;;;5085685;28;20040;-56
2022/06/05 11:15:22;;;;;;;16.10;14.52;;;20.20;99.90;;;;;;5076248;28;20125;-56
2022/06/05 11:18:17;;;;;;;15.75;14.25;;;20.30;99.90;;;;;;5084568;28;20052;-57
2022/06/05 11:20:50;;;;;;;16.02;14.43;;;20.50;99.90;;;;;;5076066;28;20071;-57
2022/06/05 11:23:26;;;;;;;16.38;14.82;;;20.50;99.90;;;;;;5097159;28;20024;-56
2022/06/05 11:26:13;;;;;;;17.50;15.60;;;20.70;99.90;;;;;;5088056;28;20030;-57
2022/06/05 11:28:46;;;;;;;17.83;16.10;;;20.60;99.90;;;;;;5084702;28;20472;-56
2022/06/05 11:31:30;;;;;;;17.95;16.35;;;20.70;99.90;;;;;;5091608;28;20399;-56
2022/06/05 11:34:19;;;;;;;21.83;18.20;;;20.90;99.90;;;;;;5089499;28;20024;-56
2022/06/05 11:36:51;;;;;;;20.58;18.45;;;20.80;99.90;;;;;;5093189;28;20137;-56
2022/06/05 11:39:39;;;;;;;21.00;18.90;;;21.00;99.90;;;;;;5092405;28;20024;-58
2022/06/05 11:42:13;;;;;;;22.05;20.00;;;21.10;99.90;;;;;;5096394;28;20156;-55
2022/06/05 11:44:57;;;;;;;22.05;19.83;;;21.20;99.90;;;;;;5095199;28;20363;-56
2022/06/05 11:47:34;;;;;;;22.38;20.08;;;21.20;99.90;;;;;;5086159;28;20519;-56
2022/06/05 11:50:03;;;;;;;19.77;18.02;;;21.20;99.90;;;;;;5090599;28;20032;-55
2022/06/05 11:52:50;;;;;;;19.38;17.25;;;21.40;99.90;;;;;;5084439;28;20016;-58
2022/06/05 11:55:30;;;;;;;17.88;16.17;;;21.30;99.90;;;;;;5089918;28;20020;-58
2022/06/05 11:58:06;;;;;;;17.65;14.90;;;21.20;99.90;;;;;;5090905;28;20114;-58
2022/06/05 12:00:31;;;;;;;15.00;13.68;;;21.10;99.90;;;;;;5093802;28;20530;-58
2022/06/05 12:03:07;;;;;;;15.88;14.48;;;20.90;99.90;;;;;;5085689;28;20023;-57
2022/06/05 12:06:02;;;;;;;16.40;14.80;;;20.90;99.90;;;;;;5091665;28;20074;-57
2022/06/05 12:08:55;;;;;;;15.60;14.10;;;21.00;99.90;;;;;;5089088;28;20636;-57
2022/06/05 12:11:43;;;;;;;15.75;14.30;;;21.10;99.90;;;;;;5098471;28;20061;-58
2022/06/05 12:14:23;;;;;;;15.80;14.30;;;21.10;99.90;;;;;;5100594;28;20035;-58
2022/06/05 12:16:58;;;;;;;14.40;13.02;;;21.10;99.90;;;;;;5094316;28;20476;-59
2022/06/05 12:19:23;;;;;;;14.43;13.02;;;21.10;99.90;;;;;;5099575;28;20031;-59
2022/06/05 12:22:11;;;;;;;14.55;13.20;;;21.10;99.90;;;;;;5089203;28;20023;-57
2022/06/05 12:24:52;;;;;;;14.70;13.20;;;21.20;99.90;;;;;;5096569;28;20039;-58
2022/06/05 12:27:20;;;;;;;12.05;10.93;;;21.30;99.90;;;;;;5096317;28;20068;-57
2022/06/05 12:29:57;;;;;;;11.80;9.77;;;21.20;99.90;;;;;;5101771;28;20028;-58
2022/06/05 12:32:38;;;;;;;13.00;11.80;;;21.40;99.90;;;;;;5098923;28;20020;-58
2022/06/05 12:35:18;;;;;;;11.35;9.82;;;21.40;99.90;;;;;;5082993;28;20027;-59
2022/06/05 12:37:53;;;;;;;10.05;9.05;;;21.40;99.90;;;;;;5099052;28;20506;-59
2022/06/05 12:40:31;;;;;;;10.60;9.63;;;21.50;99.90;;;;;;5086047;28;20020;-58
2022/06/05 12:43:11;;;;;;;10.98;9.88;;;21.40;99.90;;;;;;5098668;28;20491;-58
2022/06/05 12:45:42;;;;;;;11.73;9.93;;;21.40;99.90;;;;;;5091988;28;20028;-58
2022/06/05 12:48:12;;;;;;;11.10;10.00;;;21.40;99.90;;;;;;5091928;28;20397;-58
2022/06/05 12:51:11;;;;;;;11.82;10.63;;;21.40;99.90;;;;;;5092685;28;20101;-58
2022/06/05 12:54:07;;;;;;;9.23;8.43;;;21.60;99.90;;;;;;5096675;28;20052;-59
2022/06/05 12:56:55;;;;;;;10.57;9.30;;;21.60;99.90;;;;;;5077874;28;20032;-59
2022/06/05 12:59:33;;;;;;;9.10;8.20;;;21.60;99.90;;;;;;5087911;28;20023;-57
2022/06/05 13:02:06;;;;;;;9.98;8.93;;;21.60;99.90;;;;;;5090291;28;20073;-58
2022/06/05 13:04:53;;;;;;;10.48;9.48;;;21.80;99.90;;;;;;5095574;28;20035;-58
2022/06/05 13:07:35;;;;;;;10.98;9.18;;;21.80;99.90;;;;;;5101284;28;20386;-58
2022/06/05 13:10:16;;;;;;;11.57;10.35;;;21.90;99.90;;;;;;5100373;28;20023;-58
2022/06/05 13:13:19;;;;;;;10.05;9.05;;;22.10;99.90;;;;;;5094562;28;20053;-59
2022/06/05 13:15:58;;;;;;;9.13;7.78;;;22.30;99.90;;;;;;5091188;28;20101;-58
2022/06/05 13:18:38;;;;;;;8.43;7.65;;;22.40;99.90;;;;;;5089794;28;20031;-58
2022/06/05 13:21:27;;;;;;;8.80;7.95;;;22.40;99.90;;;;;;5084910;28;20160;-58
2022/06/05 13:24:25;;;;;;;9.07;8.25;;;22.50;99.90;;;;;;5098122;28;20024;-60
2022/06/05 13:27:03;;;;;;;8.68;7.82;;;;;;;;;;5094339;28;20537;-60
2022/06/05 13:30:12;;;;;;;8.63;7.90;;;22.90;99.90;;;;;;5094829;28;21142;-59
2022/06/05 13:33:01;;;;;;;9.20;8.38;;;22.60;99.90;;;;;;5096116;28;20011;-58